Time;durP1;ratioP1;P1;durP2;ratioP2;P2;SDS_P1;SDS_P2;PMS_P1;PMS_P2;Temp;Humidity;BMP_temperature;BMP_pressure;BME280_temperature;BME280_humidity;BME280_pressure;Samples;Min_cycle;Max_cycle;Signal;HPM_P1;HPM_P2
2020/12/21 00:00:17;;;;;;;20.63;18.03;;;7.50;99.90;;;;;;5006737;28;20182;-89
2020/12/21 00:02:46;;;;;;;17.17;15.40;;;7.30;99.90;;;;;;5005779;28;20223;-91
2020/12/21 00:05:13;;;;;;;20.17;18.07;;;7.30;99.90;;;;;;5005819;28;20188;-89
2020/12/21 00:07:38;;;;;;;17.63;15.80;;;7.30;99.90;;;;;;5020997;28;20231;-89
2020/12/21 00:10:05;;;;;;;18.13;16.23;;;7.40;99.90;;;;;;5020676;28;20193;-90
2020/12/21 00:12:32;;;;;;;17.07;15.27;;;7.40;99.90;;;;;;5012588;28;20213;-90
2020/12/21 00:14:58;;;;;;;17.00;15.30;;;7.40;99.90;;;;;;5007219;28;20217;-90
2020/12/21 00:17:23;;;;;;;17.27;15.50;;;7.40;99.90;;;;;;5005298;28;20175;-90
2020/12/21 00:19:49;;;;;;;16.23;14.60;;;7.30;99.90;;;;;;5023012;28;20237;-90
2020/12/21 00:22:17;;;;;;;16.87;15.17;;;7.30;99.90;;;;;;5024233;28;20673;-90
2020/12/21 00:24:44;;;;;;;16.90;15.10;;;7.40;99.90;;;;;;5026563;28;20178;-91
2020/12/21 00:27:10;;;;;;;16.87;13.93;;;7.40;99.90;;;;;;5041294;28;20177;-91
2020/12/21 00:29:35;;;;;;;18.50;16.70;;;7.50;99.90;;;;;;5026475;28;20188;-90
2020/12/21 00:32:01;;;;;;;17.27;15.57;;;7.50;99.90;;;;;;5025156;28;20209;-90
2020/12/21 00:34:27;;;;;;;17.23;15.53;;;7.50;99.90;;;;;;5041165;28;20600;-89
2020/12/21 00:36:54;;;;;;;17.57;15.87;;;7.50;99.90;;;;;;5026154;28;20186;-89
2020/12/21 00:39:21;;;;;;;17.37;15.67;;;7.40;99.90;;;;;;5026459;28;20514;-90
2020/12/21 00:41:47;;;;;;;17.50;15.77;;;7.40;99.90;;;;;;5026087;28;20174;-91
2020/12/21 00:44:14;;;;;;;17.90;16.17;;;7.40;99.90;;;;;;5025114;28;20249;-90
2020/12/21 00:46:40;;;;;;;19.33;17.53;;;7.50;99.90;;;;;;5026201;28;20177;-89
2020/12/21 00:49:07;;;;;;;19.63;17.57;;;7.60;99.90;;;;;;5025866;28;20240;-90
2020/12/21 00:51:33;;;;;;;18.80;16.93;;;7.60;99.90;;;;;;5041389;28;20189;-92
2020/12/21 00:54:00;;;;;;;18.67;16.73;;;7.60;99.90;;;;;;5024761;28;20221;-91
2020/12/21 00:56:25;;;;;;;17.67;15.97;;;7.50;99.90;;;;;;5025139;28;20697;-89
2020/12/21 00:58:52;;;;;;;17.07;15.40;;;7.50;99.90;;;;;;5015595;28;20195;-91
2020/12/21 01:01:23;;;;;;;18.27;16.57;;;7.40;99.90;;;;;;5005127;28;20461;-90
2020/12/21 01:03:49;;;;;;;17.20;15.57;;;7.40;99.90;;;;;;5005526;28;20198;-90
2020/12/21 01:06:15;;;;;;;15.37;13.77;;;7.30;99.90;;;;;;5006213;28;20186;-90
2020/12/21 01:08:43;;;;;;;14.90;13.40;;;7.20;99.90;;;;;;5005324;28;20202;-90
2020/12/21 01:11:10;;;;;;;16.80;15.03;;;7.20;99.90;;;;;;5008393;28;20637;-91
2020/12/21 01:13:38;;;;;;;16.20;14.60;;;7.30;99.90;;;;;;5025093;28;20870;-89
2020/12/21 01:16:04;;;;;;;15.07;13.67;;;7.30;99.90;;;;;;5023453;28;20237;-89
2020/12/21 01:18:29;;;;;;;15.63;14.23;;;7.30;99.90;;;;;;5040146;28;20186;-90
2020/12/21 01:20:55;;;;;;;14.77;13.47;;;7.20;99.90;;;;;;5025135;28;20185;-90
2020/12/21 01:23:20;;;;;;;14.57;13.10;;;7.20;99.90;;;;;;5040416;28;20208;-91
2020/12/21 01:25:46;;;;;;;15.63;14.20;;;7.20;99.90;;;;;;5025052;28;20197;-90
2020/12/21 01:28:12;;;;;;;16.23;14.63;;;7.30;99.90;;;;;;5023714;28;20220;-90
2020/12/21 01:30:38;;;;;;;16.77;15.10;;;7.20;99.90;;;;;;5025499;28;20657;-90
2020/12/21 01:33:04;;;;;;;13.53;12.23;;;7.10;99.90;;;;;;5025304;28;20264;-90
2020/12/21 01:35:29;;;;;;;15.03;13.63;;;7.10;99.90;;;;;;5041449;28;20637;-89
2020/12/21 01:37:55;;;;;;;14.53;13.23;;;7.20;99.90;;;;;;5027383;28;20181;-89
2020/12/21 01:40:21;;;;;;;15.30;13.70;;;7.30;99.90;;;;;;5025819;28;20185;-89
2020/12/21 01:42:47;;;;;;;14.77;13.40;;;7.30;99.90;;;;;;5025676;28;20206;-90
2020/12/21 01:45:12;;;;;;;14.67;13.27;;;7.40;99.20;;;;;;5005945;28;20680;-90
2020/12/21 01:47:38;;;;;;;15.37;13.87;;;7.30;99.50;;;;;;5005798;28;20194;-91
2020/12/21 01:50:07;;;;;;;14.27;12.87;;;7.20;99.90;;;;;;5006388;28;20194;-90
2020/12/21 01:52:34;;;;;;;15.07;13.57;;;7.20;99.90;;;;;;5006696;28;20206;-91
2020/12/21 01:55:01;;;;;;;14.67;13.23;;;7.30;99.90;;;;;;5004526;28;20712;-90
2020/12/21 01:57:27;;;;;;;14.63;13.23;;;7.30;99.30;;;;;;5005864;28;20208;-91
2020/12/21 01:59:53;;;;;;;13.83;12.63;;;7.30;99.90;;;;;;5018177;28;20177;-91
2020/12/21 02:02:19;;;;;;;13.97;12.43;;;7.20;99.90;;;;;;5026927;28;20202;-92
2020/12/21 02:04:45;;;;;;;12.57;11.37;;;7.30;99.90;;;;;;5025244;28;20181;-90
2020/12/21 02:07:15;;;;;;;13.17;12.07;;;7.30;99.80;;;;;;5007563;28;20202;-89
2020/12/21 02:09:42;;;;;;;14.20;12.83;;;7.20;99.90;;;;;;5017122;28;20224;-89
2020/12/21 02:12:11;;;;;;;13.60;12.43;;;7.30;99.90;;;;;;5008115;28;20202;-90
2020/12/21 02:14:37;;;;;;;15.07;13.67;;;7.40;99.90;;;;;;5006072;28;20186;-90
2020/12/21 02:17:03;;;;;;;12.47;11.37;;;7.30;99.00;;;;;;5012728;28;20186;-88
2020/12/21 02:19:29;;;;;;;13.50;12.30;;;7.30;99.60;;;;;;5032875;28;20162;-89
2020/12/21 02:21:55;;;;;;;12.87;11.73;;;7.20;99.30;;;;;;5027760;28;20173;-90
2020/12/21 02:24:20;;;;;;;11.93;10.83;;;7.20;99.90;;;;;;5038990;28;20205;-91
2020/12/21 02:26:46;;;;;;;13.60;12.30;;;7.20;99.50;;;;;;5025738;28;20220;-91
2020/12/21 02:29:12;;;;;;;13.30;12.10;;;7.20;99.90;;;;;;5025752;28;20190;-90
2020/12/21 02:31:41;;;;;;;11.67;10.67;;;7.10;99.90;;;;;;5025754;28;20200;-91
2020/12/21 02:34:07;;;;;;;10.83;9.93;;;7.10;99.90;;;;;;5025713;28;20177;-91
2020/12/21 02:36:33;;;;;;;13.10;11.80;;;7.20;99.90;;;;;;5023439;28;20213;-91
2020/12/21 02:38:59;;;;;;;12.40;11.20;;;7.20;99.40;;;;;;5024305;28;20177;-90
2020/12/21 02:41:24;;;;;;;12.80;11.70;;;7.10;99.90;;;;;;5024113;28;20182;-91
2020/12/21 02:43:50;;;;;;;12.10;11.03;;;7.10;99.90;;;;;;5039702;28;20205;-91
2020/12/21 02:46:16;;;;;;;12.93;11.77;;;7.00;99.90;;;;;;5023915;28;20193;-91
2020/12/21 02:48:43;;;;;;;13.00;11.90;;;7.10;99.90;;;;;;5023457;28;20225;-90
2020/12/21 02:51:09;;;;;;;11.37;10.37;;;7.10;99.90;;;;;;5024629;28;20181;-90
2020/12/21 02:53:34;;;;;;;12.73;11.63;;;7.10;99.90;;;;;;5021056;28;20266;-91
2020/12/21 02:56:03;;;;;;;11.07;10.17;;;7.10;99.90;;;;;;5004608;28;20225;-90
2020/12/21 02:58:29;;;;;;;11.87;10.77;;;7.20;99.90;;;;;;5007983;28;20174;-90
2020/12/21 03:00:55;;;;;;;11.80;10.80;;;7.20;99.70;;;;;;5007706;28;20233;-90
2020/12/21 03:03:20;;;;;;;12.23;11.20;;;7.30;99.20;;;;;;5007335;28;20267;-91
2020/12/21 03:05:46;;;;;;;10.97;10.00;;;7.30;98.30;;;;;;5007553;28;20221;-91
2020/12/21 03:08:12;;;;;;;12.17;11.07;;;7.20;99.00;;;;;;5008648;28;20190;-90
2020/12/21 03:10:38;;;;;;;11.67;10.67;;;7.30;99.30;;;;;;5021567;28;20193;-90
2020/12/21 03:13:05;;;;;;;12.27;11.17;;;7.30;98.90;;;;;;5027396;28;20209;-90
2020/12/21 03:15:31;;;;;;;11.80;10.80;;;7.30;99.00;;;;;;5028641;28;20256;-90
2020/12/21 03:17:57;;;;;;;12.23;11.13;;;7.40;97.90;;;;;;5028290;28;20178;-91
2020/12/21 03:20:23;;;;;;;11.80;10.70;;;7.40;97.40;;;;;;5043111;28;20185;-90
2020/12/21 03:22:49;;;;;;;11.17;10.17;;;7.30;98.00;;;;;;5026783;28;20205;-90
2020/12/21 03:25:16;;;;;;;11.10;10.10;;;7.30;98.40;;;;;;5042549;28;20185;-90
2020/12/21 03:27:42;;;;;;;11.33;10.33;;;7.30;98.90;;;;;;5026637;28;20599;-90
2020/12/21 03:30:09;;;;;;;11.67;10.67;;;7.30;99.20;;;;;;5026739;28;20662;-90
2020/12/21 03:32:35;;;;;;;12.00;10.90;;;7.30;99.00;;;;;;5027659;28;20209;-90
2020/12/21 03:35:01;;;;;;;11.57;10.50;;;7.30;98.60;;;;;;5028342;28;20209;-90
2020/12/21 03:37:26;;;;;;;13.87;12.57;;;7.30;98.30;;;;;;5027956;28;20184;-90
2020/12/21 03:39:52;;;;;;;11.97;10.87;;;7.10;99.10;;;;;;5026333;28;20205;-90
2020/12/21 03:42:18;;;;;;;11.73;10.63;;;7.10;99.90;;;;;;5027812;28;20201;-90
2020/12/21 03:44:43;;;;;;;12.60;11.40;;;7.20;99.10;;;;;;5029365;28;20174;-91
2020/12/21 03:47:10;;;;;;;11.70;10.50;;;7.20;99.30;;;;;;5027770;28;20227;-90
2020/12/21 03:49:35;;;;;;;12.73;11.57;;;7.20;99.10;;;;;;5028982;28;20205;-91
2020/12/21 03:52:01;;;;;;;12.87;11.77;;;7.20;99.40;;;;;;5029047;28;20216;-90
2020/12/21 03:54:27;;;;;;;14.63;13.33;;;7.20;99.90;;;;;;5028102;28;20185;-91
2020/12/21 03:56:52;;;;;;;15.17;13.77;;;7.10;99.90;;;;;;5028581;28;20220;-89
2020/12/21 03:59:19;;;;;;;14.97;13.67;;;7.30;99.90;;;;;;5044731;28;20194;-90
2020/12/21 04:01:44;;;;;;;16.73;15.03;;;7.30;99.90;;;;;;5028876;28;20182;-90
2020/12/21 04:04:10;;;;;;;16.37;14.77;;;7.20;99.90;;;;;;5044673;28;20208;-90
2020/12/21 04:06:37;;;;;;;15.03;13.63;;;7.20;99.90;;;;;;5028541;28;20253;-90
2020/12/21 04:09:04;;;;;;;14.83;13.53;;;7.20;99.90;;;;;;5028615;28;20212;-90
2020/12/21 04:11:30;;;;;;;16.47;14.97;;;7.20;99.90;;;;;;5027573;28;20220;-90
2020/12/21 04:13:55;;;;;;;16.63;15.10;;;7.20;99.90;;;;;;5014130;28;20202;-90
2020/12/21 04:16:21;;;;;;;14.60;13.20;;;7.20;99.90;;;;;;5007376;28;20225;-89
2020/12/21 04:18:47;;;;;;;15.30;13.70;;;7.10;99.90;;;;;;5023830;28;20178;-90
2020/12/21 04:21:14;;;;;;;14.97;13.53;;;7.10;99.90;;;;;;5008418;28;20174;-90
2020/12/21 04:23:40;;;;;;;15.47;13.90;;;7.00;99.90;;;;;;5008977;28;20230;-90
2020/12/21 04:26:07;;;;;;;13.80;12.40;;;6.90;99.90;;;;;;5007233;28;20521;-91
2020/12/21 04:28:33;;;;;;;12.60;11.50;;;6.90;99.90;;;;;;5010539;28;20634;-88
2020/12/21 04:31:06;;;;;;;14.03;10.73;;;7.00;99.90;;;;;;5025186;28;20669;-90
2020/12/21 04:33:33;;;;;;;12.17;11.07;;;6.90;99.90;;;;;;5023949;28;20217;-90
2020/12/21 04:35:59;;;;;;;10.87;9.87;;;7.00;99.90;;;;;;5024586;28;20214;-90
2020/12/21 04:38:25;;;;;;;9.97;9.07;;;7.00;99.90;;;;;;5006884;28;20274;-89
2020/12/21 04:40:52;;;;;;;11.23;10.23;;;7.00;99.90;;;;;;5008153;28;20178;-88
2020/12/21 04:43:18;;;;;;;10.30;9.40;;;7.10;99.90;;;;;;5006660;28;20198;-89
2020/12/21 04:45:45;;;;;;;10.20;9.30;;;7.00;99.90;;;;;;5011698;28;20242;-90
2020/12/21 04:48:15;;;;;;;9.50;8.60;;;7.00;99.90;;;;;;5032993;28;20206;-88
2020/12/21 04:50:41;;;;;;;10.23;9.23;;;7.10;99.90;;;;;;5023864;28;20192;-88
2020/12/21 04:53:08;;;;;;;9.90;9.00;;;7.10;99.90;;;;;;5024081;28;20288;-89
2020/12/21 04:55:34;;;;;;;9.70;8.90;;;7.10;99.90;;;;;;5019418;28;20206;-90
2020/12/21 04:58:05;;;;;;;10.17;9.17;;;7.20;99.90;;;;;;5015545;28;20174;-88
2020/12/21 05:00:32;;;;;;;10.70;9.70;;;7.20;99.90;;;;;;5008081;28;20174;-89
2020/12/21 05:02:59;;;;;;;9.50;8.67;;;7.30;99.90;;;;;;5021283;28;20209;-88
2020/12/21 05:05:36;;;;;;;10.37;9.33;;;7.20;99.90;;;;;;5027640;28;20214;-88
2020/12/21 05:08:28;;;;;;;10.10;9.17;;;7.20;99.00;;;;;;5029469;28;20663;-89
2020/12/21 05:11:01;;;;;;;55.33;48.50;;;7.20;98.00;;;;;;5005779;28;20229;-88
2020/12/21 05:13:28;;;;;;;45.83;39.77;;;7.00;99.10;;;;;;5009971;28;20234;-88
2020/12/21 05:15:55;;;;;;;39.53;35.27;;;7.00;99.50;;;;;;5027607;28;20208;-88
2020/12/21 05:18:26;;;;;;;14.43;13.10;;;7.00;99.60;;;;;;5025641;28;20244;-89
2020/12/21 05:21:05;;;;;;;12.33;11.30;;;7.10;98.30;;;;;;5026856;28;20207;-88
2020/12/21 05:23:31;;;;;;;13.27;12.17;;;7.00;98.30;;;;;;5027305;28;20216;-89
2020/12/21 05:25:59;;;;;;;10.40;9.40;;;6.90;97.70;;;;;;5025937;28;20663;-90
2020/12/21 05:28:28;;;;;;;10.10;9.30;;;6.90;97.60;;;;;;5025888;28;20192;-88
2020/12/21 05:31:04;;;;;;;11.93;10.80;;;7.00;97.70;;;;;;5025561;28;20189;-89
2020/12/21 05:33:31;;;;;;;10.37;9.47;;;6.80;97.40;;;;;;5026844;28;20209;-88
2020/12/21 05:36:05;;;;;;;10.30;9.40;;;6.90;97.00;;;;;;5026904;28;20241;-88
2020/12/21 05:38:31;;;;;;;10.00;9.03;;;6.90;97.40;;;;;;5022891;28;20261;-90
2020/12/21 05:41:11;;;;;;;9.40;8.60;;;6.80;97.30;;;;;;5039980;28;20194;-88
2020/12/21 05:43:38;;;;;;;9.33;8.53;;;6.80;97.60;;;;;;5026210;28;20213;-89
2020/12/21 05:46:25;;;;;;;8.77;8.07;;;6.90;97.00;;;;;;5025382;28;20212;-89
2020/12/21 05:48:55;;;;;;;8.97;8.27;;;6.90;95.60;;;;;;5021391;28;20198;-89
2020/12/21 05:51:26;;;;;;;10.37;9.43;;;6.90;95.80;;;;;;5004883;28;20186;-90
2020/12/21 05:53:57;;;;;;;8.93;8.23;;;6.60;95.00;;;;;;5007554;28;20206;-88
2020/12/21 05:56:25;;;;;;;9.07;8.37;;;6.60;95.90;;;;;;5017648;28;20313;-89
2020/12/21 05:58:52;;;;;;;8.87;8.13;;;6.70;95.10;;;;;;5042045;28;20227;-89
2020/12/21 06:01:18;;;;;;;9.00;8.30;;;6.70;95.10;;;;;;5024897;28;20189;-89
2020/12/21 06:03:53;;;;;;;9.80;8.97;;;6.70;95.40;;;;;;5024999;28;20225;-91
2020/12/21 06:06:24;;;;;;;8.63;7.93;;;6.70;95.40;;;;;;5025515;28;20255;-89
2020/12/21 06:08:54;;;;;;;7.30;6.70;;;6.80;94.80;;;;;;5036899;28;20220;-90
2020/12/21 06:11:52;;;;;;;15.97;7.50;;;6.70;93.50;;;;;;5820847;22;20694;-91
2020/12/21 06:14:20;;;;;;;7.10;6.60;;;6.60;92.20;;;;;;5026506;28;20216;-90
2020/12/21 06:16:47;;;;;;;9.23;8.53;;;6.40;94.40;;;;;;5044846;28;20223;-90
2020/12/21 06:19:24;;;;;;;8.93;8.13;;;6.30;94.80;;;;;;5046057;28;20176;-90
2020/12/21 06:21:53;;;;;;;9.63;8.83;;;6.30;96.40;;;;;;5027781;28;20204;-89
2020/12/21 06:24:23;;;;;;;9.13;8.33;;;6.20;96.50;;;;;;5028637;28;20185;-89
2020/12/21 06:26:50;;;;;;;9.03;8.23;;;6.20;96.80;;;;;;5046294;28;20240;-89
2020/12/21 06:29:21;;;;;;;9.67;8.87;;;6.20;97.30;;;;;;5036512;28;20169;-91
2020/12/21 06:31:47;;;;;;;9.57;8.67;;;6.20;97.90;;;;;;5051932;28;20205;-89
2020/12/21 06:34:17;;;;;;;10.50;9.50;;;6.30;98.20;;;;;;5050619;28;20185;-88
2020/12/21 06:36:45;;;;;;;11.93;10.83;;;6.40;97.10;;;;;;5036261;28;20215;-91
2020/12/21 06:39:22;;;;;;;10.00;9.10;;;6.40;95.80;;;;;;5040093;28;20216;-92
2020/12/21 06:41:48;;;;;;;10.90;10.00;;;6.30;95.60;;;;;;5016269;28;20303;-88
2020/12/21 06:44:14;;;;;;;10.00;9.00;;;6.20;97.10;;;;;;5011697;28;20213;-89
2020/12/21 06:46:39;;;;;;;8.80;8.10;;;6.10;97.20;;;;;;5028934;28;20209;-88
2020/12/21 06:49:15;;;;;;;8.80;8.00;;;6.20;97.10;;;;;;5028406;28;20177;-89
2020/12/21 06:51:45;;;;;;;9.27;8.57;;;6.30;96.20;;;;;;5028542;28;20201;-89
2020/12/21 06:54:12;;;;;;;8.70;8.00;;;6.30;96.00;;;;;;5010933;28;20197;-90
2020/12/21 06:56:40;;;;;;;8.67;7.97;;;6.40;95.80;;;;;;5039463;28;20228;-88
2020/12/21 06:59:14;;;;;;;8.60;7.90;;;6.30;95.10;;;;;;5046400;28;20181;-88
2020/12/21 07:01:41;;;;;;;8.57;7.77;;;6.30;95.10;;;;;;5030149;28;20205;-88
2020/12/21 07:04:11;;;;;;;8.40;7.60;;;6.30;96.00;;;;;;5047482;28;20602;-89
2020/12/21 07:06:38;;;;;;;9.20;8.30;;;6.20;95.40;;;;;;5030236;28;20551;-88
2020/12/21 07:09:04;;;;;;;8.37;7.67;;;6.10;95.30;;;;;;5030547;28;20189;-89
2020/12/21 07:11:30;;;;;;;8.97;8.20;;;6.10;95.70;;;;;;5013264;28;20208;-89
2020/12/21 07:13:57;;;;;;;8.50;7.80;;;6.10;96.10;;;;;;5046693;28;20196;-88
2020/12/21 07:16:23;;;;;;;9.17;8.27;;;6.30;95.20;;;;;;5030561;28;20219;-89
2020/12/21 07:18:49;;;;;;;8.60;7.90;;;6.40;94.70;;;;;;5029956;28;20181;-89
2020/12/21 07:21:16;;;;;;;9.07;8.33;;;6.30;94.90;;;;;;5029134;28;20207;-89
2020/12/21 07:23:44;;;;;;;8.90;8.00;;;6.30;94.90;;;;;;5013445;28;20219;-88
2020/12/21 07:26:12;;;;;;;8.30;7.60;;;6.40;94.30;;;;;;5010290;28;20193;-88
2020/12/21 07:28:38;;;;;;;9.00;8.20;;;6.40;94.70;;;;;;5010650;28;20205;-88
2020/12/21 07:31:06;;;;;;;8.30;7.50;;;6.40;94.10;;;;;;5035108;28;20692;-88
2020/12/21 07:33:33;;;;;;;8.70;7.80;;;6.40;94.40;;;;;;5026428;28;20202;-88
2020/12/21 07:35:59;;;;;;;8.40;7.70;;;6.40;94.20;;;;;;5028077;28;20231;-89
2020/12/21 07:38:25;;;;;;;8.63;7.93;;;6.30;94.00;;;;;;5030746;28;20181;-88
2020/12/21 07:40:52;;;;;;;8.17;7.47;;;6.40;93.70;;;;;;5018042;28;20216;-89
2020/12/21 07:43:25;;;;;;;8.57;7.77;;;6.40;93.60;;;;;;5031930;28;20279;-88
2020/12/21 07:45:56;;;;;;;6.53;6.03;;;6.40;92.90;;;;;;5029817;28;20185;-88
2020/12/21 07:48:21;;;;;;;7.93;7.17;;;6.40;92.90;;;;;;5047123;28;20170;-88
2020/12/21 07:50:47;;;;;;;8.00;7.30;;;6.40;92.80;;;;;;5029906;28;20181;-88
2020/12/21 07:53:13;;;;;;;8.83;8.13;;;6.30;92.90;;;;;;5047323;28;20204;-87
2020/12/21 07:55:39;;;;;;;9.40;8.60;;;6.30;92.70;;;;;;5029408;28;20212;-89
2020/12/21 07:58:16;;;;;;;8.87;8.17;;;6.30;91.40;;;;;;5046379;28;20181;-89
2020/12/21 08:00:58;;;;;;;9.03;8.23;;;6.20;93.40;;;;;;5007879;28;20208;-87
2020/12/21 08:03:25;;;;;;;9.20;8.23;;;6.30;93.00;;;;;;5028856;28;20520;-88
2020/12/21 08:06:10;;;;;;;11.00;9.40;;;6.30;92.30;;;;;;5025256;28;20185;-89
2020/12/21 08:08:37;;;;;;;10.73;8.67;;;6.20;92.80;;;;;;5019562;28;20243;-89
2020/12/21 08:11:04;;;;;;;10.30;9.00;;;6.30;93.70;;;;;;5015454;28;20216;-88
2020/12/21 08:13:30;;;;;;;11.03;9.80;;;6.30;93.60;;;;;;5045641;28;20245;-89
2020/12/21 08:16:07;;;;;;;12.53;10.87;;;6.20;94.20;;;;;;5045337;28;20213;-88
2020/12/21 08:18:33;;;;;;;12.90;11.50;;;6.20;94.90;;;;;;5046779;28;20219;-88
2020/12/21 08:20:58;;;;;;;10.83;9.77;;;6.10;95.40;;;;;;5045893;28;20181;-88
2020/12/21 08:23:29;;;;;;;13.77;10.80;;;6.20;95.80;;;;;;5046352;28;20193;-88
2020/12/21 08:25:56;;;;;;;11.37;10.37;;;6.20;95.60;;;;;;5046183;28;20192;-88
2020/12/21 08:28:28;;;;;;;12.17;11.07;;;6.30;95.80;;;;;;5046807;28;20188;-89
2020/12/21 08:31:05;;;;;;;10.97;9.87;;;6.30;96.10;;;;;;5034461;28;20679;-88
2020/12/21 08:33:31;;;;;;;11.70;10.50;;;6.30;96.20;;;;;;5045313;28;20205;-88
2020/12/21 08:36:13;;;;;;;16.90;11.77;;;6.40;96.30;;;;;;5021413;28;20205;-88
2020/12/21 08:38:39;;;;;;;19.60;11.57;;;6.30;96.50;;;;;;5038097;28;20192;-88
2020/12/21 08:41:05;;;;;;;12.10;10.87;;;6.30;96.90;;;;;;5043507;28;20538;-88
2020/12/21 08:43:30;;;;;;;13.70;11.00;;;6.20;97.80;;;;;;5041662;28;20204;-88
2020/12/21 08:45:56;;;;;;;10.83;9.93;;;6.30;97.50;;;;;;5026951;28;20193;-88
2020/12/21 08:48:22;;;;;;;12.97;11.00;;;6.30;97.70;;;;;;5024746;28;20196;-89
2020/12/21 08:50:48;;;;;;;12.53;11.23;;;6.50;96.80;;;;;;5027758;28;20205;-88
2020/12/21 08:53:14;;;;;;;19.50;16.70;;;6.50;97.00;;;;;;5045313;28;20209;-88
2020/12/21 08:55:39;;;;;;;14.37;12.83;;;6.50;97.70;;;;;;5026081;28;20272;-88
2020/12/21 08:58:05;;;;;;;12.77;11.67;;;6.50;98.00;;;;;;5042558;28;20525;-88
2020/12/21 09:00:30;;;;;;;13.33;11.10;;;6.60;97.20;;;;;;5027664;28;20189;-88
2020/12/21 09:02:56;;;;;;;12.50;11.30;;;6.60;97.20;;;;;;5044331;28;20284;-88
2020/12/21 09:05:22;;;;;;;12.13;10.83;;;6.60;96.90;;;;;;5046336;28;20181;-88
2020/12/21 09:07:48;;;;;;;11.93;10.60;;;6.60;97.20;;;;;;5057413;28;20177;-91
2020/12/21 09:10:13;;;;;;;13.50;12.20;;;6.70;97.20;;;;;;5030436;28;20198;-91
2020/12/21 09:12:39;;;;;;;13.00;11.60;;;6.80;96.50;;;;;;5019599;28;20209;-90
2020/12/21 09:15:05;;;;;;;13.23;11.83;;;6.80;96.70;;;;;;5034191;28;20220;-90
2020/12/21 09:17:30;;;;;;;14.93;13.53;;;6.90;97.00;;;;;;5038073;28;20200;-89
2020/12/21 09:19:56;;;;;;;14.37;12.90;;;7.00;97.10;;;;;;5012956;28;20194;-90
2020/12/21 09:22:22;;;;;;;13.83;12.50;;;7.00;97.10;;;;;;5030554;28;20221;-90
2020/12/21 09:24:49;;;;;;;31.10;27.77;;;7.10;97.40;;;;;;5027823;28;20296;-90
2020/12/21 09:27:15;;;;;;;16.73;14.57;;;7.00;97.10;;;;;;5011788;28;20524;-90
2020/12/21 09:29:41;;;;;;;17.87;15.93;;;6.90;98.40;;;;;;5027558;28;20216;-90
2020/12/21 09:32:07;;;;;;;21.60;18.57;;;6.90;98.40;;;;;;5042306;28;20225;-90
2020/12/21 09:34:32;;;;;;;17.00;15.20;;;7.00;98.20;;;;;;5008435;28;20201;-90
2020/12/21 09:36:59;;;;;;;14.23;12.77;;;6.80;97.40;;;;;;5008265;28;20237;-90
2020/12/21 09:39:24;;;;;;;13.37;12.23;;;6.70;99.00;;;;;;5009651;28;20186;-90
2020/12/21 09:41:55;;;;;;;13.40;11.83;;;6.50;99.90;;;;;;5011189;28;20627;-90
2020/12/21 09:44:20;;;;;;;13.30;10.40;;;6.60;99.90;;;;;;5025033;28;20185;-90
2020/12/21 09:46:49;;;;;;;11.30;10.13;;;6.50;99.90;;;;;;5028515;28;20181;-90
2020/12/21 09:49:15;;;;;;;14.63;10.07;;;6.60;99.90;;;;;;5012793;28;20196;-90
2020/12/21 09:51:40;;;;;;;10.77;9.57;;;6.70;99.90;;;;;;5043766;28;20735;-90
2020/12/21 09:54:06;;;;;;;7.80;7.00;;;6.70;99.90;;;;;;5007321;28;20197;-90
2020/12/21 09:56:33;;;;;;;9.37;7.10;;;6.80;99.90;;;;;;5027320;28;20220;-90
2020/12/21 09:58:59;;;;;;;8.03;6.60;;;6.70;99.90;;;;;;5011537;28;20196;-89
2020/12/21 10:01:28;;;;;;;8.60;7.20;;;6.70;99.90;;;;;;5008868;28;20525;-89
2020/12/21 10:03:56;;;;;;;7.13;5.40;;;6.90;99.90;;;;;;5024499;28;20200;-90
2020/12/21 10:06:22;;;;;;;7.10;5.63;;;7.10;99.90;;;;;;5027353;28;20196;-90
2020/12/21 10:08:48;;;;;;;9.47;5.40;;;7.20;99.50;;;;;;5023974;28;20189;-90
2020/12/21 10:11:18;;;;;;;5.50;4.73;;;7.00;99.00;;;;;;5028542;28;20200;-90
2020/12/21 10:13:43;;;;;;;6.10;5.03;;;6.90;99.60;;;;;;5039284;28;20212;-90
2020/12/21 10:16:09;;;;;;;6.00;5.37;;;6.80;99.90;;;;;;5040015;28;20655;-90
2020/12/21 10:18:38;;;;;;;5.70;5.20;;;7.00;99.90;;;;;;5042792;28;20201;-90
2020/12/21 10:21:06;;;;;;;6.53;5.80;;;7.00;99.90;;;;;;5007617;28;20211;-91
2020/12/21 10:23:32;;;;;;;6.90;6.20;;;7.20;99.70;;;;;;5035854;28;20205;-91
2020/12/21 10:26:01;;;;;;;7.80;6.67;;;7.00;99.10;;;;;;5005853;28;21621;-90
2020/12/21 10:28:27;;;;;;;6.47;5.90;;;7.00;99.90;;;;;;5011441;28;20190;-90
2020/12/21 10:30:52;;;;;;;6.57;5.90;;;7.10;99.90;;;;;;5008440;28;20190;-90
2020/12/21 10:33:18;;;;;;;6.30;5.80;;;7.10;99.90;;;;;;5007153;28;20210;-90
2020/12/21 10:35:44;;;;;;;7.50;6.50;;;7.00;99.90;;;;;;5040452;28;20279;-90
2020/12/21 10:38:10;;;;;;;6.03;5.53;;;7.00;99.90;;;;;;5044357;28;20173;-90
2020/12/21 10:40:36;;;;;;;6.00;5.50;;;7.00;99.90;;;;;;5044842;28;20189;-90
2020/12/21 10:43:01;;;;;;;7.50;6.80;;;7.10;99.90;;;;;;5044287;28;20254;-90
2020/12/21 10:45:27;;;;;;;6.50;5.90;;;7.10;99.90;;;;;;5044461;28;20181;-90
2020/12/21 10:47:53;;;;;;;6.90;5.73;;;6.90;99.90;;;;;;5035585;28;20248;-91
2020/12/21 10:50:19;;;;;;;6.73;5.93;;;6.80;99.90;;;;;;5023097;28;20193;-90
2020/12/21 10:52:45;;;;;;;8.03;6.37;;;6.80;99.90;;;;;;5006662;28;20217;-90
2020/12/21 10:55:11;;;;;;;5.93;5.33;;;6.90;99.90;;;;;;5001488;28;20268;-90
2020/12/21 10:57:36;;;;;;;7.07;5.80;;;7.10;99.90;;;;;;5018623;28;20563;-90
2020/12/21 11:00:07;;;;;;;6.43;5.83;;;7.30;99.90;;;;;;5002362;28;20185;-90
2020/12/21 11:02:32;;;;;;;14.50;6.27;;;7.20;99.90;;;;;;5007315;28;20296;-90
2020/12/21 11:04:59;;;;;;;8.07;6.43;;;7.20;99.90;;;;;;4985680;28;20281;-90
2020/12/21 11:07:25;;;;;;;7.00;6.40;;;7.10;99.90;;;;;;5020750;28;20189;-90
2020/12/21 11:09:51;;;;;;;8.03;6.60;;;7.00;99.90;;;;;;5003346;28;20208;-90
2020/12/21 11:12:22;;;;;;;8.47;7.67;;;7.00;99.90;;;;;;5018416;28;20567;-90
2020/12/21 11:14:47;;;;;;;7.53;6.53;;;7.20;99.90;;;;;;5018254;28;20201;-90
2020/12/21 11:17:13;;;;;;;7.57;6.87;;;7.30;99.90;;;;;;5020409;28;20190;-90
2020/12/21 11:19:39;;;;;;;8.27;7.40;;;7.40;99.90;;;;;;5005849;28;20619;-90
2020/12/21 11:22:04;;;;;;;8.13;7.33;;;7.50;99.90;;;;;;5007002;28;20292;-91
2020/12/21 11:24:31;;;;;;;11.27;8.00;;;7.60;99.90;;;;;;5035487;28;20196;-89
2020/12/21 11:26:58;;;;;;;8.23;7.53;;;7.40;99.90;;;;;;5026083;28;20185;-90
2020/12/21 11:29:24;;;;;;;8.10;7.37;;;7.50;99.90;;;;;;5006777;28;20189;-90
2020/12/21 11:31:49;;;;;;;8.07;7.27;;;7.70;99.90;;;;;;4990139;28;20214;-90
2020/12/21 11:34:16;;;;;;;9.67;7.60;;;7.50;99.90;;;;;;5023425;28;20184;-90
2020/12/21 11:36:43;;;;;;;9.23;7.70;;;7.60;99.90;;;;;;5023096;28;20217;-91
2020/12/21 11:39:09;;;;;;;9.43;8.47;;;7.50;99.90;;;;;;5006372;28;20209;-90
2020/12/21 11:41:35;;;;;;;9.47;8.50;;;7.40;99.90;;;;;;4990722;28;20309;-90
2020/12/21 11:44:01;;;;;;;8.83;8.00;;;7.60;99.90;;;;;;5028345;28;20174;-92
2020/12/21 11:46:31;;;;;;;9.57;8.43;;;7.60;99.90;;;;;;5023102;28;20234;-91
2020/12/21 11:48:58;;;;;;;11.37;8.83;;;7.70;99.90;;;;;;5008357;28;20185;-90
2020/12/21 11:51:24;;;;;;;11.27;8.77;;;7.80;99.90;;;;;;5043099;28;20253;-91
2020/12/21 11:53:50;;;;;;;12.87;9.43;;;7.80;99.90;;;;;;5060057;28;20173;-91
2020/12/21 11:56:19;;;;;;;10.10;8.47;;;7.70;99.90;;;;;;5054423;28;20227;-90
2020/12/21 11:58:45;;;;;;;10.00;9.00;;;7.60;99.90;;;;;;5045276;28;20187;-90
2020/12/21 12:01:11;;;;;;;13.87;10.30;;;7.50;99.90;;;;;;5046210;28;20209;-90
2020/12/21 12:03:37;;;;;;;12.40;8.73;;;7.50;99.90;;;;;;5029147;28;20225;-91
2020/12/21 12:06:03;;;;;;;10.33;9.27;;;7.70;99.90;;;;;;5012590;28;20188;-90
2020/12/21 12:08:29;;;;;;;10.13;9.13;;;7.70;99.90;;;;;;5047128;28;20189;-90
2020/12/21 12:10:55;;;;;;;10.43;8.83;;;7.80;99.90;;;;;;5013043;28;20177;-90
2020/12/21 12:13:20;;;;;;;10.83;8.43;;;7.90;99.90;;;;;;5046506;28;20240;-90
2020/12/21 12:15:48;;;;;;;9.77;8.87;;;8.10;99.90;;;;;;5028735;28;20215;-90
2020/12/21 12:18:14;;;;;;;9.83;8.00;;;8.10;99.90;;;;;;5027833;28;20189;-90
2020/12/21 12:20:40;;;;;;;8.80;8.00;;;8.40;99.90;;;;;;5046043;28;20181;-91
2020/12/21 12:23:06;;;;;;;10.87;8.63;;;8.50;99.70;;;;;;5027290;28;20205;-90
2020/12/21 12:25:32;;;;;;;9.33;7.93;;;8.60;98.20;;;;;;5028672;28;20189;-90
2020/12/21 12:27:57;;;;;;;8.00;7.07;;;8.60;98.50;;;;;;5045859;28;20183;-91
2020/12/21 12:30:23;;;;;;;9.03;8.13;;;8.70;97.60;;;;;;5044768;28;20193;-90
2020/12/21 12:32:49;;;;;;;11.03;8.07;;;8.80;96.90;;;;;;5013962;28;20208;-90
2020/12/21 12:35:15;;;;;;;9.70;8.70;;;9.00;95.80;;;;;;5030421;28;20196;-90
2020/12/21 12:37:40;;;;;;;8.60;7.80;;;9.10;96.00;;;;;;5030274;28;20643;-91
2020/12/21 12:40:06;;;;;;;8.67;7.10;;;9.20;95.40;;;;;;5031558;28;20595;-91
2020/12/21 12:42:33;;;;;;;8.00;7.00;;;9.30;95.20;;;;;;5007940;28;20252;-90
2020/12/21 12:44:59;;;;;;;7.97;7.10;;;9.30;95.20;;;;;;5002008;28;20190;-90